createdAt,value
2019-04-06T00:03:03.971Z,93.31
2019-04-06T00:06:09.075Z,93.11
2019-04-06T00:09:42.308Z,93.11
2019-04-06T00:12:47.324Z,92.59
2019-04-06T00:15:52.176Z,93.17
2019-04-06T00:19:02.844Z,93.57
2019-04-06T00:25:17.839Z,93.79
2019-04-06T00:31:59.624Z,94.06
2019-04-06T00:35:03.841Z,94.27
2019-04-06T00:41:49.688Z,94.46
2019-04-06T00:49:06.980Z,94.75
2019-04-06T00:52:32.660Z,94.94
2019-04-06T00:55:55.528Z,95.02
2019-04-06T00:58:57.180Z,95.03
2019-04-06T01:02:02.019Z,95.00
2019-04-06T01:08:55.367Z,95.12
2019-04-06T01:12:23.755Z,95.04
2019-04-06T01:16:02.920Z,94.86
2019-04-06T01:19:09.602Z,94.48
2019-04-06T01:22:22.191Z,94.58
2019-04-06T01:28:40.973Z,94.23
2019-04-06T01:31:48.806Z,94.31
2019-04-06T01:35:03.510Z,94.32
2019-04-06T01:45:46.971Z,94.44
2019-04-06T01:52:27.470Z,94.79
2019-04-06T01:55:35.121Z,94.86
2019-04-06T01:58:41.073Z,94.98
2019-04-06T02:01:54.350Z,95.05
2019-04-06T02:04:59.061Z,95.22
2019-04-06T02:08:07.824Z,95.26
2019-04-06T02:11:12.497Z,95.10
2019-04-06T02:25:41.351Z,95.08
2019-04-06T02:28:46.157Z,95.12
2019-04-06T02:32:04.044Z,94.87
2019-04-06T02:35:34.992Z,94.77
2019-04-06T02:39:12.981Z,94.79
2019-04-06T02:42:21.816Z,94.73
2019-04-06T02:45:38.122Z,94.56
2019-04-06T02:48:46.419Z,94.61
2019-04-06T02:51:52.878Z,94.10
2019-04-06T02:55:00.737Z,94.12
2019-04-06T02:58:35.892Z,94.29
2019-04-06T03:01:44.055Z,94.38
2019-04-06T03:04:49.318Z,94.43
2019-04-06T03:08:16.500Z,94.52
2019-04-06T03:11:21.924Z,94.59
2019-04-06T03:14:26.677Z,94.66
2019-04-06T03:17:31.805Z,94.72
2019-04-06T03:20:43.004Z,94.67
2019-04-06T03:24:06.723Z,94.67
2019-04-06T03:27:17.759Z,94.32
2019-04-06T03:30:22.773Z,93.97
2019-04-06T03:33:40.009Z,93.62
2019-04-06T03:36:47.803Z,93.68
2019-04-06T03:39:52.709Z,93.98
2019-04-06T03:42:57.519Z,94.17
2019-04-06T03:46:03.830Z,93.70
2019-04-06T03:49:08.776Z,93.84
2019-04-06T03:55:54.271Z,93.52
2019-04-06T03:59:02.013Z,93.83
2019-04-06T04:05:18.648Z,94.57
2019-04-06T04:08:25.582Z,94.76
2019-04-06T04:18:36.644Z,94.86
2019-04-06T04:21:50.598Z,94.94
2019-04-06T04:24:58.345Z,95.17
2019-04-06T04:28:38.324Z,95.16
2019-04-06T04:35:55.918Z,95.30
2019-04-06T04:42:11.834Z,95.62
2019-04-06T04:45:29.155Z,95.68
2019-04-06T04:49:40.060Z,95.79
2019-04-06T04:53:02.105Z,95.80
2019-04-06T05:03:37.843Z,95.96
2019-04-06T05:06:42.276Z,95.71
2019-04-06T05:09:50.211Z,95.50
2019-04-06T05:13:24.510Z,94.96
2019-04-06T05:16:29.549Z,94.05
2019-04-06T05:19:52.815Z,94.79
2019-04-06T05:23:29.085Z,95.06
2019-04-06T05:26:05.726Z,95.71
2019-04-06T05:29:10.528Z,96.07
2019-04-06T05:32:15.336Z,96.03
2019-04-06T05:35:22.511Z,96.28
2019-04-06T05:38:33.020Z,96.21
2019-04-06T05:41:47.389Z,96.01
2019-04-06T05:44:56.003Z,95.36
2019-04-06T05:48:03.799Z,94.39
2019-04-06T05:51:13.166Z,94.18
2019-04-06T05:54:23.473Z,93.84
2019-04-06T05:57:32.718Z,93.50
2019-04-06T06:00:39.930Z,93.53
2019-04-06T06:03:43.938Z,93.30
2019-04-06T06:07:19.152Z,93.38
2019-04-06T06:10:02.006Z,93.44
2019-04-06T06:13:06.635Z,93.49
2019-04-06T06:16:20.334Z,93.33
2019-04-06T06:19:25.741Z,91.99
2019-04-06T06:22:31.434Z,91.98
2019-04-06T06:25:37.233Z,92.17
2019-04-06T06:28:47.938Z,92.32
2019-04-06T06:31:52.650Z,92.63
2019-04-06T06:34:57.513Z,92.09
2019-04-06T06:38:04.926Z,92.64
2019-04-06T06:41:15.494Z,92.42
2019-04-06T06:44:23.198Z,92.79
2019-04-06T06:47:36.845Z,92.95
2019-04-06T06:50:41.194Z,92.60
2019-04-06T06:53:45.591Z,91.84
2019-04-06T06:56:59.135Z,91.64
2019-04-06T07:00:03.671Z,90.74
2019-04-06T07:03:08.324Z,89.87
2019-04-06T07:06:12.844Z,90.26
2019-04-06T07:09:17.361Z,88.72
2019-04-06T07:12:24.115Z,88.70
2019-04-06T07:15:37.668Z,88.32
2019-04-06T07:18:42.296Z,87.62
2019-04-06T07:21:47.113Z,86.90
2019-04-06T07:24:51.588Z,86.63
2019-04-06T07:27:56.006Z,85.98
2019-04-06T07:31:00.468Z,85.85
2019-04-06T07:34:04.938Z,85.37
2019-04-06T07:37:15.567Z,85.23
2019-04-06T07:40:20.336Z,85.88
2019-04-06T07:43:24.856Z,85.47
2019-04-06T07:46:29.517Z,84.09
2019-04-06T07:49:34.047Z,84.57
2019-04-06T07:52:38.486Z,84.04
2019-04-06T07:55:45.097Z,84.25
2019-04-06T07:58:52.288Z,83.56
2019-04-06T08:02:16.371Z,84.36
2019-04-06T08:05:20.787Z,84.74
2019-04-06T08:08:28.855Z,83.27
2019-04-06T08:11:45.123Z,81.96
2019-04-06T08:14:49.673Z,82.15
2019-04-06T08:17:54.376Z,81.06
2019-04-06T08:20:58.918Z,82.48
2019-04-06T08:24:03.379Z,81.06
2019-04-06T08:27:07.897Z,81.90
2019-04-06T08:30:12.913Z,80.90
2019-04-06T08:33:17.516Z,82.11
2019-04-06T08:36:23.988Z,82.47
2019-04-06T08:39:39.473Z,82.17
2019-04-06T08:42:44.127Z,82.53
2019-04-06T08:45:49.309Z,82.89
2019-04-06T08:48:53.989Z,81.71
2019-04-06T08:52:11.598Z,80.82
2019-04-06T08:55:16.417Z,80.54
2019-04-06T08:58:21.505Z,80.88
2019-04-06T09:01:26.460Z,80.93
2019-04-06T09:04:32.674Z,79.78
2019-04-06T09:07:41.924Z,80.43
2019-04-06T09:10:49.516Z,78.59
2019-04-06T09:13:56.167Z,78.64
2019-04-06T09:17:00.819Z,77.87
2019-04-06T09:20:06.405Z,77.08
2019-04-06T09:23:21.646Z,78.29
2019-04-06T09:26:27.639Z,76.67
2019-04-06T09:29:32.046Z,76.92
2019-04-06T09:32:36.681Z,76.12
2019-04-06T09:35:41.521Z,75.06
2019-04-06T09:38:46.450Z,75.76
2019-04-06T09:41:55.117Z,74.93
2019-04-06T09:45:27.327Z,75.73
2019-04-06T09:48:41.288Z,75.15
2019-04-06T09:52:14.679Z,74.18
2019-04-06T09:55:44.089Z,74.59
2019-04-06T09:58:55.951Z,75.22
2019-04-06T10:02:19.376Z,73.48
2019-04-06T10:05:30.948Z,72.34
2019-04-06T10:08:55.385Z,72.27
2019-04-06T10:12:17.833Z,72.54
2019-04-06T10:15:36.738Z,73.36
2019-04-06T10:19:07.719Z,72.61
2019-04-06T10:22:29.576Z,72.44
2019-04-06T10:25:46.165Z,72.63
2019-04-06T10:29:08.122Z,73.00
2019-04-06T10:32:39.995Z,71.49
2019-04-06T10:36:03.224Z,71.01
2019-04-06T10:39:18.696Z,71.68
2019-04-06T10:42:41.987Z,72.33
2019-04-06T10:46:07.942Z,70.37
2019-04-06T10:49:29.583Z,70.13
2019-04-06T10:52:52.811Z,70.06
2019-04-06T10:56:25.301Z,69.99
2019-04-06T11:00:02.254Z,70.23
2019-04-06T11:03:05.539Z,70.45
2019-04-06T11:06:25.109Z,70.33
2019-04-06T11:09:51.725Z,70.59
2019-04-06T11:13:30.180Z,70.32
2019-04-06T11:16:52.100Z,69.54
2019-04-06T11:20:21.529Z,70.14
2019-04-06T11:23:36.404Z,70.49
2019-04-06T11:26:53.730Z,69.72
2019-04-06T11:30:23.083Z,70.22
2019-04-06T11:33:45.326Z,70.33
2019-04-06T11:37:06.756Z,70.45
2019-04-06T11:40:29.414Z,70.45
2019-04-06T11:43:58.622Z,69.83
2019-04-06T11:47:20.517Z,68.89
2019-04-06T11:50:46.591Z,68.81
2019-04-06T11:54:09.567Z,67.31
2019-04-06T11:57:28.805Z,67.81
2019-04-06T12:00:52.025Z,66.62
2019-04-06T12:04:18.337Z,66.62
2019-04-06T12:07:44.659Z,66.69
2019-04-06T12:10:54.479Z,66.81
2019-04-06T12:14:19.631Z,66.19
2019-04-06T12:17:41.306Z,67.17
2019-04-06T12:21:02.265Z,66.66
2019-04-06T12:24:31.520Z,65.92
2019-04-06T12:27:52.290Z,64.49
2019-04-06T12:31:27.751Z,64.91
2019-04-06T12:34:57.099Z,65.74
2019-04-06T12:38:10.901Z,65.74
2019-04-06T12:41:49.294Z,66.78
2019-04-06T12:45:24.658Z,66.30
2019-04-06T12:48:46.821Z,66.49
2019-04-06T12:52:16.213Z,66.64
2019-04-06T12:55:32.278Z,67.24
2019-04-06T12:58:55.497Z,66.90
2019-04-06T13:02:28.786Z,66.95
2019-04-06T13:05:45.518Z,65.65
2019-04-06T13:09:01.772Z,65.91
2019-04-06T13:12:28.529Z,67.22
2019-04-06T13:15:42.208Z,68.34
2019-04-06T13:19:05.554Z,67.72
2019-04-06T13:22:19.153Z,67.68
2019-04-06T13:25:30.276Z,68.52
2019-04-06T13:28:57.316Z,69.08
2019-04-06T13:32:16.650Z,68.84
2019-04-06T13:35:36.754Z,68.65
2019-04-06T13:39:09.249Z,68.78
2019-04-06T13:42:36.096Z,69.01
2019-04-06T13:45:49.821Z,69.46
2019-04-06T13:49:11.511Z,68.93
2019-04-06T13:52:43.645Z,68.49
2019-04-06T13:56:12.669Z,68.23
2019-04-06T13:59:51.008Z,67.47
2019-04-06T14:03:20.364Z,67.47
2019-04-06T14:06:58.801Z,67.58
2019-04-06T14:10:09.356Z,67.08
2019-04-06T14:13:37.736Z,67.08
2019-04-06T14:17:16.286Z,66.95
2019-04-06T14:20:45.439Z,66.81
2019-04-06T14:24:22.788Z,66.40
2019-04-06T14:27:44.582Z,66.38
2019-04-06T14:30:59.100Z,66.08
2019-04-06T14:34:22.319Z,65.61
2019-04-06T14:37:37.272Z,65.23
2019-04-06T14:40:59.138Z,65.31
2019-04-06T14:44:18.700Z,65.87
2019-04-06T14:47:44.729Z,65.80
2019-04-06T14:51:25.933Z,66.56
2019-04-06T14:54:51.998Z,67.17
2019-04-06T14:58:09.455Z,66.26
2019-04-06T15:01:48.623Z,66.42
2019-04-06T15:04:56.735Z,67.22
2019-04-06T15:08:20.321Z,66.68
2019-04-06T15:11:52.333Z,66.49
2019-04-06T15:15:15.979Z,66.00
2019-04-06T15:18:27.435Z,65.57
2019-04-06T15:21:41.809Z,65.86
2019-04-06T15:25:04.845Z,65.86
2019-04-06T15:28:24.457Z,66.55
2019-04-06T15:31:51.041Z,66.36
2019-04-06T15:35:05.040Z,66.78
2019-04-06T15:38:29.201Z,66.79
2019-04-06T15:41:56.264Z,64.66
2019-04-06T15:45:18.911Z,64.66
2019-04-06T15:48:54.334Z,64.68
2019-04-06T15:52:30.654Z,64.61
2019-04-06T15:55:51.035Z,64.63
2019-04-06T15:59:05.860Z,64.19
2019-04-06T16:02:18.885Z,63.58
2019-04-06T16:05:48.155Z,63.19
2019-04-06T16:09:11.440Z,63.27
2019-04-06T16:12:23.823Z,63.77
2019-04-06T16:15:52.341Z,63.77
2019-04-06T16:19:22.529Z,64.71
2019-04-06T16:27:42.574Z,65.03
2019-04-06T16:31:23.918Z,65.19
2019-04-06T16:38:52.773Z,66.87
2019-04-06T16:42:09.659Z,67.36
2019-04-06T16:45:26.155Z,66.69
2019-04-06T16:49:21.938Z,67.25
2019-04-06T16:52:45.337Z,67.69
2019-04-06T16:56:11.677Z,67.68
2019-04-06T16:59:35.513Z,68.34
2019-04-06T17:03:23.390Z,67.75
2019-04-06T17:10:28.632Z,67.67
2019-04-06T17:14:06.641Z,67.08
2019-04-06T17:17:38.433Z,67.08
2019-04-06T17:21:14.312Z,67.95
2019-04-06T17:24:37.922Z,67.58
2019-04-06T17:28:10.643Z,68.14
2019-04-06T17:31:52.645Z,68.58
2019-04-06T17:35:29.158Z,68.44
2019-04-06T17:43:04.480Z,69.52
2019-04-06T17:46:34.054Z,69.57
2019-04-06T17:50:05.353Z,69.72
2019-04-06T17:53:46.900Z,70.23
2019-04-06T17:57:01.557Z,70.25
2019-04-06T18:00:30.799Z,70.40
2019-04-06T18:07:42.769Z,71.47
2019-04-06T18:11:02.852Z,71.30
2019-04-06T18:14:11.011Z,71.73
2019-04-06T18:17:21.003Z,71.33
2019-04-06T18:20:30.163Z,71.35
2019-04-06T18:23:55.940Z,71.53
2019-04-06T18:27:01.712Z,71.61
2019-04-06T18:30:07.451Z,71.58
2019-04-06T18:33:37.274Z,71.69
2019-04-06T18:37:16.981Z,71.83
2019-04-06T18:40:24.205Z,72.00
2019-04-06T18:43:28.668Z,72.54
2019-04-06T18:46:33.810Z,72.78
2019-04-06T18:49:38.642Z,73.14
2019-04-06T18:52:46.559Z,73.10
2019-04-06T18:55:51.754Z,73.02
2019-04-06T18:58:56.261Z,72.82
2019-04-06T19:02:04.499Z,72.95
2019-04-06T19:05:15.268Z,73.37
2019-04-06T19:08:21.402Z,73.53
2019-04-06T19:11:27.648Z,73.81
2019-04-06T19:14:32.161Z,74.51
2019-04-06T19:17:38.863Z,74.98
2019-04-06T19:20:43.328Z,75.25
2019-04-06T19:23:48.352Z,75.54
2019-04-06T19:26:52.888Z,75.05
2019-04-06T19:29:57.388Z,75.72
2019-04-06T19:33:01.902Z,74.79
2019-04-06T19:36:07.130Z,75.35
2019-04-06T19:39:14.068Z,75.49
2019-04-06T19:42:19.280Z,75.48
2019-04-06T19:45:25.970Z,76.24
2019-04-06T19:48:30.597Z,76.33
2019-04-06T19:51:35.420Z,76.37
2019-04-06T19:54:40.388Z,76.78
2019-04-06T19:57:45.290Z,77.19
2019-04-06T20:00:52.722Z,77.28
2019-04-06T20:03:59.168Z,77.43
2019-04-06T20:07:04.108Z,77.27
2019-04-06T20:10:09.359Z,77.50
2019-04-06T20:13:14.347Z,77.52
2019-04-06T20:16:18.990Z,78.05
2019-04-06T20:19:23.981Z,78.25
2019-04-06T20:22:29.056Z,77.90
2019-04-06T20:25:34.598Z,78.49
2019-04-06T20:28:40.059Z,78.88
2019-04-06T20:31:47.802Z,78.91
2019-04-06T20:34:55.565Z,79.18
2019-04-06T20:38:00.447Z,79.19
2019-04-06T20:41:05.285Z,79.37
2019-04-06T20:44:10.809Z,79.52
2019-04-06T20:47:15.384Z,79.75
2019-04-06T20:50:24.530Z,79.76
2019-04-06T20:53:29.894Z,79.67
2019-04-06T20:56:35.057Z,80.01
2019-04-06T20:59:41.411Z,79.94
2019-04-06T21:09:46.357Z,80.21
2019-04-06T21:12:52.700Z,80.11
2019-04-06T21:16:06.985Z,80.37
2019-04-06T21:19:11.875Z,80.45
2019-04-06T21:22:17.261Z,80.75
2019-04-06T21:25:22.353Z,81.07
2019-04-06T21:28:48.867Z,81.57
2019-04-06T21:35:12.750Z,81.58
2019-04-06T21:38:34.385Z,81.63
2019-04-06T21:41:42.889Z,81.94
2019-04-06T21:44:50.431Z,82.09
2019-04-06T21:47:58.302Z,82.39
2019-04-06T21:51:04.479Z,82.55
2019-04-06T21:54:09.378Z,82.71
2019-04-06T21:57:14.546Z,82.54
2019-04-06T22:00:50.079Z,82.92
2019-04-06T22:04:25.865Z,82.47
2019-04-06T22:07:27.640Z,83.27
2019-04-06T22:10:32.316Z,83.35
2019-04-06T22:13:40.888Z,83.42
2019-04-06T22:16:45.855Z,83.52
2019-04-06T22:19:52.689Z,83.84
2019-04-06T22:22:58.253Z,83.51
2019-04-06T22:26:08.096Z,83.42
2019-04-06T22:29:22.193Z,83.34
2019-04-06T22:32:35.778Z,83.60
2019-04-06T22:35:40.834Z,83.98
2019-04-06T22:38:45.917Z,83.76
2019-04-06T22:41:53.705Z,83.46
2019-04-06T22:44:58.758Z,83.86
2019-04-06T22:48:04.743Z,84.29
2019-04-06T22:51:10.157Z,83.75
2019-04-06T22:54:14.993Z,83.62
2019-04-06T22:57:20.278Z,84.08
2019-04-06T23:00:34.980Z,84.37
2019-04-06T23:04:13.649Z,84.97
2019-04-06T23:07:43.876Z,85.19
2019-04-06T23:10:52.064Z,85.48
2019-04-06T23:13:56.731Z,85.22
2019-04-06T23:17:02.212Z,85.09
2019-04-06T23:20:07.464Z,85.32
2019-04-06T23:30:40.094Z,85.03
2019-04-06T23:33:45.097Z,85.50
2019-04-06T23:36:50.093Z,85.50
2019-04-06T23:39:55.042Z,84.89
2019-04-06T23:46:48.755Z,85.03
2019-04-06T23:54:40.213Z,85.67
2019-04-06T23:57:45.455Z,85.49
